Time;durP1;ratioP1;P1;durP2;ratioP2;P2;SDS_P1;SDS_P2;PMS_P1;PMS_P2;Temp;Humidity;BMP_temperature;BMP_pressure;BME280_temperature;BME280_humidity;BME280_pressure;Samples;Min_cycle;Max_cycle;Signal;HPM_P1;HPM_P2
2021/03/19 00:00:03;;;;;;;;;;;14.90;55.20;;;;;;4917816;29;20329;-62
2021/03/19 00:02:29;;;;;;;;;;;15.00;55.20;;;;;;4918302;29;19907;-61
2021/03/19 00:04:54;;;;;;;;;;;14.70;55.10;;;;;;4917960;29;19969;-62
2021/03/19 00:07:23;;;;;;;;;;;15.10;55.40;;;;;;4918180;29;19918;-62
2021/03/19 00:09:49;;;;;;;;;;;14.80;55.20;;;;;;4918193;29;19911;-62
2021/03/19 00:12:14;;;;;;;;;;;14.90;55.30;;;;;;4917931;29;19907;-62
2021/03/19 00:14:40;;;;;;;;;;;14.80;55.30;;;;;;4918179;29;19990;-62
2021/03/19 00:17:05;;;;;;;;;;;14.80;55.20;;;;;;4917912;29;19915;-62
2021/03/19 00:19:31;;;;;;;;;;;14.70;55.20;;;;;;4917779;29;19918;-62
2021/03/19 00:21:56;;;;;;;;;;;14.90;55.20;;;;;;4918166;29;19935;-62
2021/03/19 00:24:22;;;;;;;;;;;14.80;55.10;;;;;;4917723;29;20384;-61
2021/03/19 00:26:47;;;;;;;;;;;14.80;55.10;;;;;;4917924;29;19915;-62
2021/03/19 00:29:13;;;;;;;;;;;14.80;55.10;;;;;;4917993;29;19907;-62
2021/03/19 00:31:38;;;;;;;;;;;14.80;55.10;;;;;;4917515;29;19907;-62
2021/03/19 00:34:04;;;;;;;;;;;14.70;55.00;;;;;;4917747;29;19907;-62
2021/03/19 00:36:29;;;;;;;;;;;14.80;55.20;;;;;;4917807;29;20255;-62
2021/03/19 00:38:55;;;;;;;;;;;14.70;55.10;;;;;;4917705;29;19907;-62
2021/03/19 00:41:20;;;;;;;;;;;14.50;55.00;;;;;;4917698;29;20254;-62
2021/03/19 00:43:46;;;;;;;;;;;14.70;55.10;;;;;;4917063;29;19915;-62
2021/03/19 00:46:11;;;;;;;;;;;14.60;55.10;;;;;;4917354;29;19918;-62
2021/03/19 00:48:37;;;;;;;;;;;14.70;54.60;;;;;;4917381;29;19907;-62
2021/03/19 00:51:02;;;;;;;;;;;14.70;55.10;;;;;;4917424;29;19907;-62
2021/03/19 00:53:28;;;;;;;;;;;14.60;55.10;;;;;;4917378;29;20370;-62
2021/03/19 00:55:55;;;;;;;;;;;14.60;55.10;;;;;;4917324;29;19914;-62
2021/03/19 00:58:21;;;;;;;;;;;14.60;55.10;;;;;;4917056;29;19918;-61
2021/03/19 01:00:53;;;;;;;;;;;14.60;55.10;;;;;;4917274;29;19907;-62
2021/03/19 01:03:18;;;;;;;;;;;14.60;55.00;;;;;;4916890;29;19911;-62
2021/03/19 01:05:44;;;;;;;;;;;14.60;55.10;;;;;;4917132;29;19959;-62
2021/03/19 01:08:11;;;;;;;;;;;14.60;55.10;;;;;;4917085;29;19914;-62
2021/03/19 01:10:38;;;;;;;;;;;14.60;55.10;;;;;;4917050;29;20009;-62
2021/03/19 01:13:04;;;;;;;;;;;14.60;55.10;;;;;;4916267;29;20367;-62
2021/03/19 01:15:31;;;;;;;;;;;14.50;55.00;;;;;;4917011;29;19989;-62
2021/03/19 01:17:56;;;;;;;;;;;14.40;55.00;;;;;;4917048;29;19915;-62
2021/03/19 01:20:23;;;;;;;;;;;14.40;55.00;;;;;;4916722;29;19970;-62
2021/03/19 01:22:49;;;;;;;;;;;14.50;55.10;;;;;;4916857;29;19914;-62
2021/03/19 01:25:16;;;;;;;;;;;14.50;55.00;;;;;;4916915;29;19934;-62
2021/03/19 01:27:41;;;;;;;;;;;14.50;55.10;;;;;;4916846;29;19910;-62
2021/03/19 01:30:08;;;;;;;;;;;14.30;55.00;;;;;;4916875;29;19915;-62
2021/03/19 01:32:33;;;;;;;;;;;14.50;55.10;;;;;;4916679;29;19914;-62
2021/03/19 01:34:59;;;;;;;;;;;14.50;55.00;;;;;;4916523;29;19907;-62
2021/03/19 01:37:25;;;;;;;;;;;14.50;55.10;;;;;;4916533;29;19936;-62
2021/03/19 01:39:51;;;;;;;;;;;14.40;55.10;;;;;;4916418;29;20445;-62
2021/03/19 01:42:16;;;;;;;;;;;14.40;55.00;;;;;;4916509;29;19911;-62
2021/03/19 01:44:42;;;;;;;;;;;14.30;55.00;;;;;;4916618;29;19943;-62
2021/03/19 01:47:26;;;;;;;;;;;14.40;55.10;;;;;;4916640;29;20255;-62
2021/03/19 01:50:10;;;;;;;;;;;14.40;55.00;;;;;;4916428;29;19911;-62
2021/03/19 01:52:54;;;;;;;;;;;14.40;55.00;;;;;;4916646;29;19923;-62
2021/03/19 01:55:38;;;;;;;;;;;14.40;55.00;;;;;;4916557;29;20286;-62
2021/03/19 01:58:22;;;;;;;;;;;14.30;54.90;;;;;;4916290;29;19961;-62
2021/03/19 02:01:06;;;;;;;;;;;14.30;55.00;;;;;;4916565;29;19907;-62
2021/03/19 02:03:50;;;;;;;;;;;14.30;55.00;;;;;;4916152;29;19911;-62
2021/03/19 02:06:35;;;;;;;;;;;14.30;55.10;;;;;;4899147;29;19915;-62
2021/03/19 02:09:19;;;;;;;;;;;14.30;55.10;;;;;;4916371;29;19907;-62
2021/03/19 02:12:03;;;;;;;;;;;14.30;55.10;;;;;;4916244;29;19911;-62
2021/03/19 02:14:47;;;;;;;;;;;14.30;55.10;;;;;;4916637;29;19907;-62
2021/03/19 02:17:31;;;;;;;;;;;14.30;55.10;;;;;;4897399;29;19924;-62
2021/03/19 02:20:15;;;;;;;;;;;14.30;55.10;;;;;;4897713;29;20335;-61
2021/03/19 02:22:59;;;;;;;;;;;15.00;55.50;;;;;;4897498;29;19908;-62
2021/03/19 02:25:43;;;;;;;;;;;14.20;55.10;;;;;;4901111;29;19919;-62
2021/03/19 02:28:27;;;;;;;;;;;14.20;55.20;;;;;;4901087;29;19907;-62
2021/03/19 02:31:13;;;;;;;;;;;14.20;55.20;;;;;;4900995;29;19911;-62
2021/03/19 02:33:52;;;;;;;;;;;14.20;55.20;;;;;;4901061;29;19907;-63
2021/03/19 02:36:20;;;;;;;;;;;14.20;55.20;;;;;;4901256;29;19971;-62
2021/03/19 02:38:45;;;;;;;;;;;14.10;55.30;;;;;;4901305;29;20274;-62
2021/03/19 02:41:11;;;;;;;;;;;14.30;55.40;;;;;;4901020;29;20002;-62
2021/03/19 02:43:37;;;;;;;;;;;14.10;55.90;;;;;;4901184;29;19911;-62
2021/03/19 02:46:02;;;;;;;;;;;14.10;55.40;;;;;;4900911;29;19918;-62
2021/03/19 02:48:28;;;;;;;;;;;14.10;55.40;;;;;;4901044;29;20286;-61
2021/03/19 02:50:53;;;;;;;;;;;14.00;55.40;;;;;;4900684;29;19918;-62
2021/03/19 02:53:27;;;;;;;;;;;14.10;55.40;;;;;;4900667;29;19907;-62
2021/03/19 02:55:53;;;;;;;;;;;14.10;55.30;;;;;;4900765;29;19907;-61
2021/03/19 02:58:19;;;;;;;;;;;14.10;55.50;;;;;;4900458;29;19982;-62
2021/03/19 03:00:45;;;;;;;;;;;14.10;55.40;;;;;;4900643;29;19927;-62
2021/03/19 03:03:10;;;;;;;;;;;14.10;55.40;;;;;;4900606;29;19908;-62
2021/03/19 03:05:36;;;;;;;;;;;14.00;55.40;;;;;;4900480;29;19919;-62
2021/03/19 03:08:02;;;;;;;;;;;14.00;55.40;;;;;;4900507;29;19927;-62
2021/03/19 03:10:29;;;;;;;;;;;14.10;55.40;;;;;;4900221;29;19955;-61
2021/03/19 03:12:54;;;;;;;;;;;14.00;55.50;;;;;;4900204;29;19942;-61
2021/03/19 03:15:20;;;;;;;;;;;14.00;55.50;;;;;;4907003;29;19919;-62
2021/03/19 03:17:46;;;;;;;;;;;14.00;55.50;;;;;;4918985;29;19918;-62
2021/03/19 03:20:24;;;;;;;;;;;14.00;55.50;;;;;;4918928;29;19922;-62
2021/03/19 03:22:49;;;;;;;;;;;14.00;55.40;;;;;;4925151;29;19907;-62
2021/03/19 03:25:16;;;;;;;;;;;13.90;55.40;;;;;;4918822;29;19939;-62
2021/03/19 03:27:41;;;;;;;;;;;14.00;55.50;;;;;;4918693;29;20015;-62
2021/03/19 03:30:09;;;;;;;;;;;13.90;56.10;;;;;;4918822;29;19942;-62
2021/03/19 03:32:35;;;;;;;;;;;13.90;55.80;;;;;;4918666;29;19962;-62
2021/03/19 03:35:00;;;;;;;;;;;13.80;55.50;;;;;;4918435;29;19907;-62
2021/03/19 03:37:26;;;;;;;;;;;13.90;55.50;;;;;;4918725;29;20337;-62
2021/03/19 03:39:51;;;;;;;;;;;13.90;55.60;;;;;;4918799;29;19915;-61
2021/03/19 03:42:17;;;;;;;;;;;13.90;55.50;;;;;;4918725;29;19918;-62
2021/03/19 03:44:42;;;;;;;;;;;13.90;55.50;;;;;;4918355;29;20529;-61
2021/03/19 03:47:08;;;;;;;;;;;13.80;55.50;;;;;;4918346;29;19914;-62
2021/03/19 03:49:33;;;;;;;;;;;13.70;55.60;;;;;;4901457;29;19907;-62
2021/03/19 03:51:59;;;;;;;;;;;13.90;55.60;;;;;;4901197;29;20002;-62
2021/03/19 03:54:24;;;;;;;;;;;13.70;55.50;;;;;;4918328;29;19910;-62
2021/03/19 03:56:50;;;;;;;;;;;13.80;55.50;;;;;;4918255;29;20358;-62
2021/03/19 03:59:15;;;;;;;;;;;13.70;55.50;;;;;;4918069;29;19907;-62
2021/03/19 04:01:41;;;;;;;;;;;13.80;55.50;;;;;;4918199;29;19949;-62
2021/03/19 04:04:10;;;;;;;;;;;13.70;55.50;;;;;;4918292;29;19922;-61
2021/03/19 04:06:35;;;;;;;;;;;13.80;55.60;;;;;;4918296;29;19922;-62
2021/03/19 04:09:01;;;;;;;;;;;13.80;55.60;;;;;;4900948;29;19981;-62
2021/03/19 04:11:26;;;;;;;;;;;14.70;56.10;;;;;;4917967;29;19911;-62
2021/03/19 04:13:52;;;;;;;;;;;13.80;55.70;;;;;;4918194;29;19940;-62
2021/03/19 04:16:18;;;;;;;;;;;13.70;55.60;;;;;;4918093;29;19919;-62
2021/03/19 04:18:44;;;;;;;;;;;14.40;56.00;;;;;;4917859;29;19911;-62
2021/03/19 04:21:11;;;;;;;;;;;13.60;55.60;;;;;;4917797;29;19907;-61
2021/03/19 04:23:38;;;;;;;;;;;13.70;55.60;;;;;;4900524;29;19907;-63
2021/03/19 04:26:04;;;;;;;;;;;13.50;55.50;;;;;;4917966;29;20278;-62
2021/03/19 04:28:31;;;;;;;;;;;13.70;55.60;;;;;;4917689;29;19914;-62
2021/03/19 04:30:57;;;;;;;;;;;13.80;55.70;;;;;;4917404;29;19917;-62
2021/03/19 04:33:25;;;;;;;;;;;13.70;55.70;;;;;;4917829;29;20006;-62
2021/03/19 04:36:10;;;;;;;;;;;13.70;55.60;;;;;;4917564;29;19907;-62
2021/03/19 04:38:37;;;;;;;;;;;13.70;55.50;;;;;;4917729;29;19907;-62
2021/03/19 04:41:02;;;;;;;;;;;13.60;55.60;;;;;;4917682;29;19914;-62
2021/03/19 04:43:28;;;;;;;;;;;13.70;55.70;;;;;;4917335;29;19962;-61
2021/03/19 04:45:53;;;;;;;;;;;13.50;55.60;;;;;;4917378;29;20044;-62
2021/03/19 04:48:19;;;;;;;;;;;13.60;55.70;;;;;;4916580;29;19907;-62
2021/03/19 04:50:45;;;;;;;;;;;13.60;55.70;;;;;;4917156;29;20507;-62
2021/03/19 04:53:11;;;;;;;;;;;13.90;55.80;;;;;;4917438;29;19907;-62
2021/03/19 04:55:36;;;;;;;;;;;13.60;55.70;;;;;;4917479;29;19933;-62
2021/03/19 04:58:02;;;;;;;;;;;13.60;55.80;;;;;;4917429;29;20009;-64
2021/03/19 05:00:27;;;;;;;;;;;13.60;55.80;;;;;;4917089;29;19907;-64
2021/03/19 05:02:53;;;;;;;;;;;13.60;55.80;;;;;;4917047;29;19918;-64
2021/03/19 05:05:27;;;;;;;;;;;13.50;55.60;;;;;;4917101;29;19923;-63
2021/03/19 05:07:54;;;;;;;;;;;13.50;55.70;;;;;;4917113;29;20311;-63
2021/03/19 05:10:21;;;;;;;;;;;13.60;55.80;;;;;;4899891;29;19938;-64
2021/03/19 05:12:46;;;;;;;;;;;13.60;55.80;;;;;;4916845;29;20494;-63
2021/03/19 05:15:26;;;;;;;;;;;13.40;55.70;;;;;;4917311;29;20009;-64
2021/03/19 05:17:51;;;;;;;;;;;13.50;55.70;;;;;;4916791;29;19915;-64
2021/03/19 05:20:17;;;;;;;;;;;13.50;55.80;;;;;;4916959;29;19911;-64
2021/03/19 05:22:43;;;;;;;;;;;13.50;55.80;;;;;;4916698;29;20418;-63
2021/03/19 05:25:10;;;;;;;;;;;13.40;55.80;;;;;;4916818;29;20018;-63
2021/03/19 05:27:35;;;;;;;;;;;13.50;55.80;;;;;;4916621;29;20381;-63
2021/03/19 05:30:01;;;;;;;;;;;13.50;55.80;;;;;;4916541;29;19907;-64
2021/03/19 05:32:27;;;;;;;;;;;13.50;55.80;;;;;;4916604;29;19918;-64
2021/03/19 05:34:53;;;;;;;;;;;13.30;55.70;;;;;;4916684;29;19943;-63
2021/03/19 05:37:19;;;;;;;;;;;13.40;55.80;;;;;;4916671;29;19914;-65
2021/03/19 05:39:45;;;;;;;;;;;13.40;55.90;;;;;;4916488;29;19907;-65
2021/03/19 05:42:18;;;;;;;;;;;13.50;56.00;;;;;;4916418;29;19914;-63
2021/03/19 05:44:45;;;;;;;;;;;13.50;55.90;;;;;;4916166;29;20014;-64
2021/03/19 05:47:12;;;;;;;;;;;13.40;56.00;;;;;;4916333;29;19911;-63
2021/03/19 05:49:37;;;;;;;;;;;13.40;56.10;;;;;;4916361;29;19911;-64
2021/03/19 05:52:08;;;;;;;;;;;13.40;56.00;;;;;;4916275;29;20005;-61
2021/03/19 05:54:34;;;;;;;;;;;13.40;56.00;;;;;;4916292;29;20004;-64
2021/03/19 05:56:59;;;;;;;;;;;13.40;56.10;;;;;;4916574;29;19907;-64
2021/03/19 05:59:25;;;;;;;;;;;13.40;56.20;;;;;;4915942;29;19907;-64
2021/03/19 06:01:51;;;;;;;;;;;13.40;56.20;;;;;;4916272;29;20494;-64
2021/03/19 06:04:18;;;;;;;;;;;13.40;56.80;;;;;;4916150;29;20038;-64
2021/03/19 06:06:48;;;;;;;;;;;13.60;56.80;;;;;;4916037;29;19907;-64
2021/03/19 06:09:25;;;;;;;;;;;13.50;56.60;;;;;;4922462;29;19917;-63
2021/03/19 06:11:52;;;;;;;;;;;13.50;56.50;;;;;;4916095;29;20363;-64
2021/03/19 06:14:17;;;;;;;;;;;13.60;56.50;;;;;;4916113;29;19911;-64
2021/03/19 06:16:44;;;;;;;;;;;13.80;56.20;;;;;;4916416;29;19926;-62
2021/03/19 06:19:22;;;;;;;;;;;13.90;55.80;;;;;;4916464;29;19907;-64
2021/03/19 06:21:48;;;;;;;;;;;14.10;55.50;;;;;;4916142;29;19907;-64
2021/03/19 06:24:27;;;;;;;;;;;14.10;55.30;;;;;;4916046;29;19915;-64
2021/03/19 06:26:53;;;;;;;;;;;14.40;55.10;;;;;;4916134;29;19915;-62
2021/03/19 06:29:34;;;;;;;;;;;14.50;54.80;;;;;;4916086;29;19915;-63
2021/03/19 06:32:14;;;;;;;;;;;14.60;54.60;;;;;;4916056;29;19914;-63
2021/03/19 06:35:09;;;;;;;;;;;14.70;54.40;;;;;;4916023;29;19954;-64
2021/03/19 06:37:37;;;;;;;;;;;14.70;54.30;;;;;;4889612;29;19922;-63
2021/03/19 06:40:07;;;;;;;;;;;14.80;54.20;;;;;;4915771;29;20370;-63
2021/03/19 06:42:34;;;;;;;;;;;14.80;54.00;;;;;;4916268;29;19971;-64
2021/03/19 06:45:11;;;;;;;;;;;14.90;54.00;;;;;;4916093;29;20322;-63
2021/03/19 06:48:03;;;;;;;;;;;14.90;53.90;;;;;;4915770;29;19907;-63
2021/03/19 06:50:28;;;;;;;;;;;14.90;53.90;;;;;;4912704;29;19907;-62
2021/03/19 06:53:11;;;;;;;;;;;14.90;54.10;;;;;;4915779;29;19914;-62
2021/03/19 06:55:41;;;;;;;;;;;14.90;54.50;;;;;;4914075;29;20579;-62
2021/03/19 06:58:07;;;;;;;;;;;14.90;54.40;;;;;;4915033;29;19907;-62
2021/03/19 07:00:39;;;;;;;;;;;14.70;54.40;;;;;;4915473;29;20423;-62
2021/03/19 07:03:23;;;;;;;;;;;14.90;54.50;;;;;;4914186;29;19942;-62
2021/03/19 07:06:07;;;;;;;;;;;14.90;54.40;;;;;;4914654;29;19915;-62
2021/03/19 07:08:32;;;;;;;;;;;14.80;54.40;;;;;;4914957;29;19938;-62
2021/03/19 07:11:01;;;;;;;;;;;14.70;54.50;;;;;;4916868;29;20362;-62
2021/03/19 07:13:38;;;;;;;;;;;14.80;54.50;;;;;;4918504;29;19907;-63
2021/03/19 07:16:07;;;;;;;;;;;14.80;54.70;;;;;;4919110;29;20427;-64
2021/03/19 07:18:44;;;;;;;;;;;14.80;55.00;;;;;;4919035;29;20371;-62
2021/03/19 07:21:10;;;;;;;;;;;14.80;55.10;;;;;;4919023;29;20355;-62
2021/03/19 07:23:55;;;;;;;;;;;14.50;55.30;;;;;;4919144;29;19915;-63
2021/03/19 07:26:28;;;;;;;;;;;14.70;55.40;;;;;;4879634;29;19907;-62
2021/03/19 07:29:13;;;;;;;;;;;14.70;55.40;;;;;;4918439;29;20354;-62
2021/03/19 07:31:48;;;;;;;;;;;14.70;55.50;;;;;;4916849;29;19907;-63
2021/03/19 07:34:32;;;;;;;;;;;14.80;55.50;;;;;;4918650;29;19907;-63
2021/03/19 07:37:12;;;;;;;;;;;14.80;55.40;;;;;;4918592;29;19911;-62
2021/03/19 07:39:56;;;;;;;;;;;14.70;55.40;;;;;;4918841;29;20002;-62
2021/03/19 07:42:30;;;;;;;;;;;14.80;55.20;;;;;;4918778;29;19949;-62
2021/03/19 07:45:14;;;;;;;;;;;14.80;55.10;;;;;;4918437;29;19916;-62
2021/03/19 07:47:42;;;;;;;;;;;14.80;55.00;;;;;;4918579;29;19907;-62
2021/03/19 07:50:15;;;;;;;;;;;14.90;54.80;;;;;;4918632;29;20384;-62
2021/03/19 07:52:41;;;;;;;;;;;15.00;54.60;;;;;;4918547;29;20292;-62
2021/03/19 07:55:26;;;;;;;;;;;15.00;54.50;;;;;;4918722;29;19907;-62
2021/03/19 07:58:02;;;;;;;;;;;15.00;54.40;;;;;;4918183;29;20380;-62
2021/03/19 08:00:40;;;;;;;;;;;15.10;54.20;;;;;;4918581;29;19926;-62
2021/03/19 08:03:38;;;;;;;;;;;15.20;54.10;;;;;;4918403;29;19907;-62
2021/03/19 08:06:07;;;;;;;;;;;15.20;53.80;;;;;;4886231;29;19914;-62
2021/03/19 08:08:39;;;;;;;;;;;15.20;53.80;;;;;;4918274;29;19907;-62
2021/03/19 08:11:23;;;;;;;;;;;15.20;53.70;;;;;;4918059;29;19946;-62
2021/03/19 08:14:01;;;;;;;;;;;15.30;53.70;;;;;;4918040;29;19908;-62
2021/03/19 08:16:45;;;;;;;;;;;15.20;53.80;;;;;;4918381;29;19919;-63
2021/03/19 08:19:16;;;;;;;;;;;15.20;53.80;;;;;;4917546;29;20350;-62
2021/03/19 08:21:53;;;;;;;;;;;15.20;53.90;;;;;;4917808;29;20420;-62
2021/03/19 08:24:30;;;;;;;;;;;15.20;53.90;;;;;;4917989;29;19915;-62
2021/03/19 08:27:02;;;;;;;;;;;15.20;54.00;;;;;;4917604;29;19918;-62
2021/03/19 08:29:27;;;;;;;;;;;15.20;53.90;;;;;;4917743;29;19911;-62
2021/03/19 08:32:13;;;;;;;;;;;15.30;54.00;;;;;;4917758;29;19911;-63
2021/03/19 08:34:41;;;;;;;;;;;15.20;53.80;;;;;;4887710;29;19914;-63
2021/03/19 08:37:17;;;;;;;;;;;15.30;53.90;;;;;;4917613;29;19942;-62
2021/03/19 08:39:44;;;;;;;;;;;15.40;54.00;;;;;;4917480;29;20183;-62
2021/03/19 08:42:12;;;;;;;;;;;15.40;54.00;;;;;;4917695;29;20290;-62
2021/03/19 08:44:39;;;;;;;;;;;15.40;53.80;;;;;;4917515;29;19919;-63
2021/03/19 08:47:13;;;;;;;;;;;15.30;53.80;;;;;;4917405;29;19907;-63
2021/03/19 08:49:39;;;;;;;;;;;15.50;53.80;;;;;;4917223;29;19914;-62
2021/03/19 08:52:23;;;;;;;;;;;15.50;53.70;;;;;;4917310;29;19907;-62
2021/03/19 08:55:08;;;;;;;;;;;15.60;53.70;;;;;;4917383;29;19907;-63
2021/03/19 08:57:35;;;;;;;;;;;15.60;53.60;;;;;;4917028;29;20278;-63
2021/03/19 09:00:00;;;;;;;;;;;15.80;53.40;;;;;;4916832;29;19914;-62
2021/03/19 09:02:26;;;;;;;;;;;15.70;53.30;;;;;;4916942;29;19907;-62
2021/03/19 09:04:57;;;;;;;;;;;15.80;53.30;;;;;;4916909;29;19938;-63
2021/03/19 09:07:26;;;;;;;;;;;15.80;53.20;;;;;;4916875;29;20392;-63
2021/03/19 09:09:53;;;;;;;;;;;15.80;53.80;;;;;;4916965;29;19935;-63
2021/03/19 09:12:20;;;;;;;;;;;15.80;53.10;;;;;;4917223;29;19911;-62
2021/03/19 09:14:48;;;;;;;;;;;15.90;53.00;;;;;;4917059;29;19950;-63
2021/03/19 09:17:20;;;;;;;;;;;15.80;53.00;;;;;;4917222;29;20365;-62
2021/03/19 09:19:59;;;;;;;;;;;16.00;53.00;;;;;;4923240;29;20368;-62
2021/03/19 09:22:24;;;;;;;;;;;16.00;52.80;;;;;;4916768;29;19907;-62
2021/03/19 09:25:09;;;;;;;;;;;15.90;52.90;;;;;;4916952;29;19922;-62
2021/03/19 09:27:35;;;;;;;;;;;16.00;52.90;;;;;;4916896;29;19914;-63
2021/03/19 09:30:22;;;;;;;;;;;15.80;52.70;;;;;;4916452;29;19954;-63
2021/03/19 09:32:56;;;;;;;;;;;16.00;52.80;;;;;;4916212;29;19918;-63
2021/03/19 09:35:39;;;;;;;;;;;16.10;52.70;;;;;;4916855;29;19961;-63
2021/03/19 09:38:24;;;;;;;;;;;16.10;52.80;;;;;;4916439;29;19907;-63
2021/03/19 09:40:54;;;;;;;;;;;16.10;52.80;;;;;;4915179;29;20287;-63
2021/03/19 09:43:34;;;;;;;;;;;16.10;52.60;;;;;;4916460;29;20016;-63
2021/03/19 09:46:05;;;;;;;;;;;16.10;52.40;;;;;;4899497;29;19922;-63
2021/03/19 09:48:33;;;;;;;;;;;16.20;52.50;;;;;;4916161;29;20251;-63
2021/03/19 09:51:00;;;;;;;;;;;16.00;52.30;;;;;;4899046;29;20369;-63
2021/03/19 09:53:28;;;;;;;;;;;16.20;52.20;;;;;;4916455;29;19907;-63
2021/03/19 09:56:04;;;;;;;;;;;16.10;52.10;;;;;;4899415;29;19911;-62
2021/03/19 09:58:44;;;;;;;;;;;16.40;52.10;;;;;;4899302;29;19907;-62
2021/03/19 10:01:09;;;;;;;;;;;16.40;51.70;;;;;;4899090;29;20282;-62
2021/03/19 10:03:47;;;;;;;;;;;16.40;51.70;;;;;;4916198;29;19914;-62
2021/03/19 10:06:42;;;;;;;;;;;16.50;51.60;;;;;;4916462;29;19922;-62
2021/03/19 10:09:09;;;;;;;;;;;16.50;51.60;;;;;;4908254;29;20449;-62
2021/03/19 10:11:35;;;;;;;;;;;16.50;51.20;;;;;;4916093;29;19907;-62
2021/03/19 10:14:19;;;;;;;;;;;16.40;51.10;;;;;;4916000;29;19914;-62
2021/03/19 10:16:45;;;;;;;;;;;16.60;51.10;;;;;;4899487;29;20370;-62
2021/03/19 10:19:14;;;;;;;;;;;16.70;51.10;;;;;;4916088;29;19907;-62
2021/03/19 10:21:45;;;;;;;;;;;16.60;51.10;;;;;;4916226;29;19907;-62
2021/03/19 10:24:12;;;;;;;;;;;17.20;51.20;;;;;;4915883;29;20374;-62
2021/03/19 10:26:42;;;;;;;;;;;16.70;50.90;;;;;;4916045;29;19907;-62
2021/03/19 10:29:10;;;;;;;;;;;16.70;50.80;;;;;;4916015;29;19907;-62
2021/03/19 10:31:38;;;;;;;;;;;16.80;50.80;;;;;;4915913;29;19914;-62
2021/03/19 10:34:07;;;;;;;;;;;16.70;50.90;;;;;;4916012;29;20344;-62
2021/03/19 10:36:36;;;;;;;;;;;16.70;50.80;;;;;;4915950;29;19915;-60
2021/03/19 10:39:07;;;;;;;;;;;16.80;50.90;;;;;;4915223;29;19908;-62
2021/03/19 10:41:32;;;;;;;;;;;16.80;50.80;;;;;;4914469;29;20294;-62
2021/03/19 10:44:19;;;;;;;;;;;16.60;50.70;;;;;;4915861;29;19911;-62
2021/03/19 10:47:05;;;;;;;;;;;16.80;50.70;;;;;;4919442;29;19914;-62
2021/03/19 10:49:31;;;;;;;;;;;17.00;50.80;;;;;;4912455;29;19938;-62
2021/03/19 10:52:02;;;;;;;;;;;16.70;50.50;;;;;;4919726;29;19957;-62
2021/03/19 10:54:33;;;;;;;;;;;16.90;50.60;;;;;;4919456;29;19958;-61
2021/03/19 10:57:22;;;;;;;;;;;16.80;50.60;;;;;;4925864;29;19911;-62
2021/03/19 10:59:50;;;;;;;;;;;16.90;50.60;;;;;;4913914;29;19913;-62
2021/03/19 11:02:21;;;;;;;;;;;16.80;50.50;;;;;;4919565;29;19907;-62
2021/03/19 11:04:56;;;;;;;;;;;16.90;50.70;;;;;;4918988;29;20017;-62
2021/03/19 11:07:28;;;;;;;;;;;16.80;50.70;;;;;;4919198;29;20171;-62
2021/03/19 11:10:06;;;;;;;;;;;16.80;50.60;;;;;;4919445;29;20351;-62
2021/03/19 11:12:34;;;;;;;;;;;16.90;50.50;;;;;;4919073;29;20080;-62
2021/03/19 11:15:00;;;;;;;;;;;16.60;50.70;;;;;;4919315;29;19954;-61
2021/03/19 11:17:26;;;;;;;;;;;16.70;50.00;;;;;;4919352;29;20423;-61
2021/03/19 11:20:05;;;;;;;;;;;16.90;50.30;;;;;;4919273;29;20009;-62
2021/03/19 11:22:35;;;;;;;;;;;17.00;50.10;;;;;;4919028;29;19907;-62
2021/03/19 11:25:18;;;;;;;;;;;17.00;50.10;;;;;;4919287;29;19915;-62
2021/03/19 11:27:44;;;;;;;;;;;17.00;50.00;;;;;;4919226;29;20423;-62
2021/03/19 11:30:11;;;;;;;;;;;17.00;50.10;;;;;;4919168;29;20081;-62
2021/03/19 11:32:37;;;;;;;;;;;17.00;50.10;;;;;;4918729;29;20369;-62
2021/03/19 11:35:17;;;;;;;;;;;17.00;50.00;;;;;;4918843;29;19918;-62
2021/03/19 11:37:45;;;;;;;;;;;17.00;50.10;;;;;;4918877;29;20005;-63
2021/03/19 11:40:26;;;;;;;;;;;17.00;50.20;;;;;;4918722;29;20354;-62
2021/03/19 11:43:00;;;;;;;;;;;17.00;50.10;;;;;;4918974;29;19919;-62
2021/03/19 11:45:27;;;;;;;;;;;17.00;50.10;;;;;;4918576;29;19950;-62
2021/03/19 11:47:52;;;;;;;;;;;17.00;50.20;;;;;;4918702;29;19911;-62
2021/03/19 11:50:28;;;;;;;;;;;17.00;50.30;;;;;;4918405;29;19918;-62
2021/03/19 11:53:01;;;;;;;;;;;17.00;50.20;;;;;;4917469;29;19915;-62
2021/03/19 11:55:31;;;;;;;;;;;16.90;50.20;;;;;;4917880;29;19946;-62
2021/03/19 11:57:57;;;;;;;;;;;16.90;50.30;;;;;;4918521;29;19907;-62
2021/03/19 12:00:27;;;;;;;;;;;16.70;50.30;;;;;;4918473;29;19917;-62
2021/03/19 12:02:57;;;;;;;;;;;16.90;50.40;;;;;;4918158;29;19918;-61
2021/03/19 12:05:24;;;;;;;;;;;16.90;50.40;;;;;;4918036;29;20401;-62
2021/03/19 12:07:49;;;;;;;;;;;16.90;50.50;;;;;;4918108;29;19907;-62
2021/03/19 12:10:16;;;;;;;;;;;16.70;50.40;;;;;;4918111;29;20350;-62
2021/03/19 12:12:42;;;;;;;;;;;16.90;50.50;;;;;;4917732;29;19998;-62
2021/03/19 12:15:08;;;;;;;;;;;16.80;50.50;;;;;;4918095;29;19946;-62
2021/03/19 12:17:34;;;;;;;;;;;16.80;50.60;;;;;;4918470;29;19919;-62
2021/03/19 12:19:59;;;;;;;;;;;16.90;50.60;;;;;;4918090;29;19907;-62
2021/03/19 12:22:25;;;;;;;;;;;16.80;50.50;;;;;;4917966;29;19935;-62
2021/03/19 12:24:50;;;;;;;;;;;16.70;50.50;;;;;;4917754;29;19990;-62
2021/03/19 12:27:19;;;;;;;;;;;16.60;50.50;;;;;;4917840;29;19942;-62
2021/03/19 12:29:44;;;;;;;;;;;16.50;50.50;;;;;;4917866;29;19930;-61
2021/03/19 12:32:10;;;;;;;;;;;16.70;50.60;;;;;;4917886;29;20346;-62
2021/03/19 12:34:36;;;;;;;;;;;16.70;50.60;;;;;;4917752;29;19914;-62
2021/03/19 12:37:01;;;;;;;;;;;16.70;50.60;;;;;;4917766;29;19914;-62
2021/03/19 12:39:27;;;;;;;;;;;16.50;50.50;;;;;;4917702;29;20402;-62
2021/03/19 12:41:52;;;;;;;;;;;16.60;50.60;;;;;;4917734;29;19911;-62
2021/03/19 12:44:18;;;;;;;;;;;16.60;50.80;;;;;;4917392;29;19919;-62
2021/03/19 12:46:44;;;;;;;;;;;16.60;50.30;;;;;;4917355;29;19911;-61
2021/03/19 12:49:10;;;;;;;;;;;16.60;50.70;;;;;;4917672;29;19939;-62
2021/03/19 12:51:35;;;;;;;;;;;16.30;50.70;;;;;;4917472;29;19978;-62
2021/03/19 12:54:01;;;;;;;;;;;16.50;50.80;;;;;;4900438;29;20248;-62
2021/03/19 12:56:27;;;;;;;;;;;16.30;50.70;;;;;;4917000;29;19907;-61
2021/03/19 12:58:52;;;;;;;;;;;16.40;50.90;;;;;;4900015;29;19915;-62
2021/03/19 13:01:20;;;;;;;;;;;16.40;50.90;;;;;;4917420;29;20001;-62
2021/03/19 13:03:49;;;;;;;;;;;16.40;50.90;;;;;;4916632;29;19907;-69
2021/03/19 13:06:18;;;;;;;;;;;16.20;50.90;;;;;;4917208;29;19973;-65
2021/03/19 13:08:44;;;;;;;;;;;16.40;51.10;;;;;;4916513;29;20416;-62
2021/03/19 13:11:10;;;;;;;;;;;16.40;51.40;;;;;;4917175;29;20018;-62
2021/03/19 13:13:36;;;;;;;;;;;16.40;52.10;;;;;;4916706;29;19914;-62
2021/03/19 13:16:01;;;;;;;;;;;17.00;52.60;;;;;;4917154;29;19918;-63
2021/03/19 13:18:27;;;;;;;;;;;16.50;52.00;;;;;;4916917;29;19914;-62
2021/03/19 13:20:52;;;;;;;;;;;16.40;51.40;;;;;;4916883;29;19918;-62
2021/03/19 13:23:18;;;;;;;;;;;16.60;52.10;;;;;;4917053;29;19911;-63
2021/03/19 13:25:44;;;;;;;;;;;16.50;50.90;;;;;;4916992;29;19919;-70
2021/03/19 13:28:10;;;;;;;;;;;16.70;50.80;;;;;;4916735;29;20001;-64
2021/03/19 13:30:36;;;;;;;;;;;16.80;50.60;;;;;;4916890;29;20429;-62
2021/03/19 13:33:02;;;;;;;;;;;16.90;50.80;;;;;;4916721;29;19907;-62
2021/03/19 13:35:36;;;;;;;;;;;16.70;51.10;;;;;;4916404;29;19948;-62
2021/03/19 13:38:02;;;;;;;;;;;17.00;50.20;;;;;;4916561;29;19907;-62
2021/03/19 13:40:28;;;;;;;;;;;17.10;50.10;;;;;;4916657;29;19907;-62
2021/03/19 13:42:54;;;;;;;;;;;17.20;50.30;;;;;;4915517;29;20282;-62
2021/03/19 13:45:20;;;;;;;;;;;17.20;50.20;;;;;;4916574;29;19970;-63
2021/03/19 13:47:45;;;;;;;;;;;17.20;50.00;;;;;;4916238;29;19957;-62
2021/03/19 13:50:12;;;;;;;;;;;17.30;50.10;;;;;;4916575;29;20338;-63
2021/03/19 13:52:37;;;;;;;;;;;17.30;50.10;;;;;;4916210;29;19962;-63
2021/03/19 13:55:04;;;;;;;;;;;17.30;50.20;;;;;;4916557;29;19911;-62
2021/03/19 13:57:29;;;;;;;;;;;17.40;50.20;;;;;;4915235;29;19936;-68
2021/03/19 13:59:55;;;;;;;;;;;17.30;50.10;;;;;;4914248;29;19938;-63
2021/03/19 14:02:22;;;;;;;;;;;17.30;50.20;;;;;;4914222;29;19997;-63
2021/03/19 14:04:48;;;;;;;;;;;18.00;50.70;;;;;;4914869;29;19915;-62
2021/03/19 14:07:13;;;;;;;;;;;17.90;50.70;;;;;;4915408;29;19911;-63
2021/03/19 14:09:39;;;;;;;;;;;17.40;50.20;;;;;;4915335;29;20266;-63
2021/03/19 14:12:05;;;;;;;;;;;17.40;50.30;;;;;;4915644;29;19907;-63
2021/03/19 14:14:30;;;;;;;;;;;17.50;50.40;;;;;;4916282;29;19907;-62
2021/03/19 14:16:55;;;;;;;;;;;17.30;50.50;;;;;;4916305;29;20434;-64
2021/03/19 14:19:21;;;;;;;;;;;17.40;50.50;;;;;;4917080;29;19907;-63
2021/03/19 14:21:48;;;;;;;;;;;17.50;50.40;;;;;;4920066;29;20298;-63
2021/03/19 14:24:13;;;;;;;;;;;17.50;50.30;;;;;;4919944;29;20400;-63
2021/03/19 14:26:39;;;;;;;;;;;17.50;50.60;;;;;;4919824;29;19911;-63
2021/03/19 14:29:04;;;;;;;;;;;17.30;50.40;;;;;;4919672;29;19907;-64
2021/03/19 14:31:30;;;;;;;;;;;17.40;50.20;;;;;;4919742;29;19914;-63